sensor_id;sensor_type;location;lat;lon;timestamp;P1;durP1;ratioP1;P2;durP2;ratioP2
28613;SDS011;15806;53.548;9.964;2024-01-11T00:00:48;29.98;;;8.40;;
28613;SDS011;15806;53.548;9.964;2024-01-11T00:02:28;30.02;;;8.82;;
28613;SDS011;15806;53.548;9.964;2024-01-11T00:04:09;30.37;;;8.17;;
28613;SDS011;15806;53.548;9.964;2024-01-11T00:05:52;31.95;;;9.48;;
28613;SDS011;15806;53.548;9.964;2024-01-11T00:07:34;35.20;;;9.02;;
28613;SDS011;15806;53.548;9.964;2024-01-11T00:09:15;27.47;;;8.47;;
28613;SDS011;15806;53.548;9.964;2024-01-11T00:10:56;35.10;;;10.30;;
28613;SDS011;15806;53.548;9.964;2024-01-11T00:12:38;35.85;;;9.93;;
28613;SDS011;15806;53.548;9.964;2024-01-11T00:14:19;32.83;;;9.38;;
28613;SDS011;15806;53.548;9.964;2024-01-11T00:15:59;29.37;;;9.07;;
28613;SDS011;15806;53.548;9.964;2024-01-11T00:17:40;32.37;;;8.73;;
28613;SDS011;15806;53.548;9.964;2024-01-11T00:19:22;30.07;;;7.97;;
28613;SDS011;15806;53.548;9.964;2024-01-11T00:21:02;36.60;;;9.07;;
28613;SDS011;15806;53.548;9.964;2024-01-11T00:22:44;31.63;;;9.60;;
28613;SDS011;15806;53.548;9.964;2024-01-11T00:24:24;34.20;;;8.53;;
28613;SDS011;15806;53.548;9.964;2024-01-11T00:26:05;35.70;;;9.87;;
28613;SDS011;15806;53.548;9.964;2024-01-11T00:27:46;35.70;;;9.70;;
28613;SDS011;15806;53.548;9.964;2024-01-11T00:29:27;37.80;;;9.53;;
28613;SDS011;15806;53.548;9.964;2024-01-11T00:31:07;32.03;;;8.70;;
28613;SDS011;15806;53.548;9.964;2024-01-11T00:32:48;32.83;;;9.30;;
28613;SDS011;15806;53.548;9.964;2024-01-11T00:34:28;33.77;;;9.47;;
28613;SDS011;15806;53.548;9.964;2024-01-11T00:36:09;28.20;;;7.97;;
28613;SDS011;15806;53.548;9.964;2024-01-11T00:37:49;33.33;;;8.80;;
28613;SDS011;15806;53.548;9.964;2024-01-11T00:39:30;40.40;;;10.70;;
28613;SDS011;15806;53.548;9.964;2024-01-11T00:41:10;42.53;;;10.77;;
28613;SDS011;15806;53.548;9.964;2024-01-11T00:42:51;36.67;;;10.40;;
28613;SDS011;15806;53.548;9.964;2024-01-11T00:44:31;32.57;;;9.17;;
28613;SDS011;15806;53.548;9.964;2024-01-11T00:46:12;35.20;;;9.20;;
28613;SDS011;15806;53.548;9.964;2024-01-11T00:47:52;32.87;;;9.50;;
28613;SDS011;15806;53.548;9.964;2024-01-11T00:49:33;38.20;;;10.63;;
28613;SDS011;15806;53.548;9.964;2024-01-11T00:51:14;33.47;;;9.43;;
28613;SDS011;15806;53.548;9.964;2024-01-11T00:52:55;37.25;;;9.48;;
28613;SDS011;15806;53.548;9.964;2024-01-11T00:54:36;29.30;;;8.07;;
28613;SDS011;15806;53.548;9.964;2024-01-11T00:56:19;32.40;;;9.73;;
28613;SDS011;15806;53.548;9.964;2024-01-11T00:58:01;35.72;;;9.15;;
28613;SDS011;15806;53.548;9.964;2024-01-11T00:59:41;31.30;;;7.93;;
28613;SDS011;15806;53.548;9.964;2024-01-11T01:01:22;27.77;;;7.80;;
28613;SDS011;15806;53.548;9.964;2024-01-11T01:03:02;32.20;;;8.90;;
28613;SDS011;15806;53.548;9.964;2024-01-11T01:06:26;29.08;;;7.43;;
28613;SDS011;15806;53.548;9.964;2024-01-11T01:08:06;36.57;;;8.37;;
28613;SDS011;15806;53.548;9.964;2024-01-11T01:09:47;29.33;;;7.73;;
28613;SDS011;15806;53.548;9.964;2024-01-11T01:11:29;31.33;;;9.15;;
28613;SDS011;15806;53.548;9.964;2024-01-11T01:13:09;27.70;;;8.37;;
28613;SDS011;15806;53.548;9.964;2024-01-11T01:14:50;32.80;;;9.17;;
28613;SDS011;15806;53.548;9.964;2024-01-11T01:16:31;36.47;;;8.90;;
28613;SDS011;15806;53.548;9.964;2024-01-11T01:18:12;33.40;;;9.00;;
28613;SDS011;15806;53.548;9.964;2024-01-11T01:19:52;31.87;;;8.27;;
28613;SDS011;15806;53.548;9.964;2024-01-11T01:21:33;30.73;;;8.93;;
28613;SDS011;15806;53.548;9.964;2024-01-11T01:23:13;28.63;;;7.63;;
28613;SDS011;15806;53.548;9.964;2024-01-11T01:24:54;28.20;;;9.10;;
28613;SDS011;15806;53.548;9.964;2024-01-11T01:26:34;37.00;;;9.13;;
28613;SDS011;15806;53.548;9.964;2024-01-11T01:28:15;27.87;;;8.80;;
28613;SDS011;15806;53.548;9.964;2024-01-11T01:29:55;32.57;;;9.83;;
28613;SDS011;15806;53.548;9.964;2024-01-11T01:31:37;31.65;;;9.10;;
28613;SDS011;15806;53.548;9.964;2024-01-11T01:33:18;26.93;;;7.90;;
28613;SDS011;15806;53.548;9.964;2024-01-11T01:34:58;35.67;;;8.23;;
28613;SDS011;15806;53.548;9.964;2024-01-11T01:36:39;31.77;;;8.37;;
28613;SDS011;15806;53.548;9.964;2024-01-11T01:38:23;30.33;;;8.40;;
28613;SDS011;15806;53.548;9.964;2024-01-11T01:40:05;33.25;;;8.48;;
28613;SDS011;15806;53.548;9.964;2024-01-11T01:41:46;31.00;;;8.43;;
28613;SDS011;15806;53.548;9.964;2024-01-11T01:43:28;31.90;;;7.90;;
28613;SDS011;15806;53.548;9.964;2024-01-11T01:46:51;24.97;;;6.73;;
28613;SDS011;15806;53.548;9.964;2024-01-11T01:48:32;28.08;;;7.28;;
28613;SDS011;15806;53.548;9.964;2024-01-11T01:50:12;32.00;;;8.82;;
28613;SDS011;15806;53.548;9.964;2024-01-11T01:51:53;34.05;;;8.82;;
28613;SDS011;15806;53.548;9.964;2024-01-11T01:53:34;33.13;;;7.78;;
28613;SDS011;15806;53.548;9.964;2024-01-11T01:55:16;28.15;;;7.65;;
28613;SDS011;15806;53.548;9.964;2024-01-11T01:56:57;35.10;;;9.13;;
28613;SDS011;15806;53.548;9.964;2024-01-11T01:58:38;34.67;;;9.43;;
28613;SDS011;15806;53.548;9.964;2024-01-11T02:00:20;25.47;;;7.93;;
28613;SDS011;15806;53.548;9.964;2024-01-11T02:02:00;33.85;;;8.32;;
28613;SDS011;15806;53.548;9.964;2024-01-11T02:03:41;27.15;;;7.07;;
28613;SDS011;15806;53.548;9.964;2024-01-11T02:05:23;30.60;;;7.88;;
28613;SDS011;15806;53.548;9.964;2024-01-11T02:07:04;32.42;;;7.78;;
28613;SDS011;15806;53.548;9.964;2024-01-11T02:08:46;27.77;;;7.43;;
28613;SDS011;15806;53.548;9.964;2024-01-11T02:10:28;29.25;;;6.88;;
28613;SDS011;15806;53.548;9.964;2024-01-11T02:12:10;30.83;;;8.95;;
28613;SDS011;15806;53.548;9.964;2024-01-11T02:13:51;27.92;;;7.30;;
28613;SDS011;15806;53.548;9.964;2024-01-11T02:15:33;28.40;;;6.82;;
28613;SDS011;15806;53.548;9.964;2024-01-11T02:17:14;35.85;;;9.20;;
28613;SDS011;15806;53.548;9.964;2024-01-11T02:18:55;37.57;;;8.40;;
28613;SDS011;15806;53.548;9.964;2024-01-11T02:20:36;33.33;;;8.55;;
28613;SDS011;15806;53.548;9.964;2024-01-11T02:22:35;37.08;;;8.77;;
28613;SDS011;15806;53.548;9.964;2024-01-11T02:24:20;32.90;;;7.68;;
28613;SDS011;15806;53.548;9.964;2024-01-11T02:26:01;28.00;;;7.50;;
28613;SDS011;15806;53.548;9.964;2024-01-11T02:27:48;35.30;;;8.33;;
28613;SDS011;15806;53.548;9.964;2024-01-11T02:29:29;32.75;;;9.02;;
28613;SDS011;15806;53.548;9.964;2024-01-11T02:31:14;30.70;;;8.85;;
28613;SDS011;15806;53.548;9.964;2024-01-11T02:32:54;33.22;;;8.90;;
28613;SDS011;15806;53.548;9.964;2024-01-11T02:34:35;34.80;;;10.00;;
28613;SDS011;15806;53.548;9.964;2024-01-11T02:36:16;29.92;;;8.23;;
28613;SDS011;15806;53.548;9.964;2024-01-11T02:38:00;33.47;;;9.00;;
28613;SDS011;15806;53.548;9.964;2024-01-11T02:39:41;33.88;;;9.80;;
28613;SDS011;15806;53.548;9.964;2024-01-11T02:41:22;35.38;;;9.13;;
28613;SDS011;15806;53.548;9.964;2024-01-11T02:43:10;34.55;;;9.15;;
28613;SDS011;15806;53.548;9.964;2024-01-11T02:44:51;35.08;;;8.35;;
28613;SDS011;15806;53.548;9.964;2024-01-11T02:46:34;33.75;;;8.50;;
28613;SDS011;15806;53.548;9.964;2024-01-11T02:48:14;36.55;;;9.15;;
28613;SDS011;15806;53.548;9.964;2024-01-11T02:49:55;29.37;;;8.50;;
28613;SDS011;15806;53.548;9.964;2024-01-11T02:51:35;30.97;;;8.67;;
28613;SDS011;15806;53.548;9.964;2024-01-11T02:53:16;38.03;;;10.53;;
28613;SDS011;15806;53.548;9.964;2024-01-11T02:54:57;34.53;;;8.67;;
28613;SDS011;15806;53.548;9.964;2024-01-11T02:56:37;32.20;;;9.82;;
28613;SDS011;15806;53.548;9.964;2024-01-11T02:58:18;36.50;;;9.33;;
28613;SDS011;15806;53.548;9.964;2024-01-11T02:59:59;32.58;;;8.27;;
28613;SDS011;15806;53.548;9.964;2024-01-11T03:01:39;44.17;;;10.60;;
28613;SDS011;15806;53.548;9.964;2024-01-11T03:03:20;42.07;;;9.47;;
28613;SDS011;15806;53.548;9.964;2024-01-11T03:05:02;44.77;;;10.57;;
28613;SDS011;15806;53.548;9.964;2024-01-11T03:06:42;34.97;;;9.57;;
28613;SDS011;15806;53.548;9.964;2024-01-11T03:08:23;42.70;;;10.50;;
28613;SDS011;15806;53.548;9.964;2024-01-11T03:10:07;47.10;;;11.05;;
28613;SDS011;15806;53.548;9.964;2024-01-11T03:11:47;36.63;;;9.93;;
28613;SDS011;15806;53.548;9.964;2024-01-11T03:13:28;41.57;;;9.87;;
28613;SDS011;15806;53.548;9.964;2024-01-11T03:15:08;39.10;;;10.83;;
28613;SDS011;15806;53.548;9.964;2024-01-11T03:16:49;40.08;;;9.05;;
28613;SDS011;15806;53.548;9.964;2024-01-11T03:18:33;51.22;;;11.55;;
28613;SDS011;15806;53.548;9.964;2024-01-11T03:20:14;45.03;;;11.25;;
28613;SDS011;15806;53.548;9.964;2024-01-11T03:21:54;46.57;;;11.33;;
28613;SDS011;15806;53.548;9.964;2024-01-11T03:23:35;40.27;;;10.07;;
28613;SDS011;15806;53.548;9.964;2024-01-11T03:25:15;47.17;;;10.97;;
28613;SDS011;15806;53.548;9.964;2024-01-11T03:26:56;41.00;;;10.70;;
28613;SDS011;15806;53.548;9.964;2024-01-11T03:28:37;51.57;;;13.67;;
28613;SDS011;15806;53.548;9.964;2024-01-11T03:30:18;41.08;;;10.77;;
28613;SDS011;15806;53.548;9.964;2024-01-11T03:31:58;48.57;;;11.43;;
28613;SDS011;15806;53.548;9.964;2024-01-11T03:33:39;49.37;;;10.83;;
28613;SDS011;15806;53.548;9.964;2024-01-11T03:35:21;44.13;;;11.80;;
28613;SDS011;15806;53.548;9.964;2024-01-11T03:37:01;50.05;;;15.10;;
28613;SDS011;15806;53.548;9.964;2024-01-11T03:38:42;45.95;;;10.65;;
28613;SDS011;15806;53.548;9.964;2024-01-11T03:40:23;47.00;;;12.73;;
28613;SDS011;15806;53.548;9.964;2024-01-11T03:42:04;53.67;;;11.90;;
28613;SDS011;15806;53.548;9.964;2024-01-11T03:43:44;54.08;;;11.98;;
28613;SDS011;15806;53.548;9.964;2024-01-11T03:45:25;47.73;;;12.57;;
28613;SDS011;15806;53.548;9.964;2024-01-11T03:47:05;47.43;;;11.60;;
28613;SDS011;15806;53.548;9.964;2024-01-11T03:48:46;44.83;;;11.07;;
28613;SDS011;15806;53.548;9.964;2024-01-11T03:50:26;42.83;;;12.23;;
28613;SDS011;15806;53.548;9.964;2024-01-11T03:52:07;46.40;;;10.87;;
28613;SDS011;15806;53.548;9.964;2024-01-11T03:53:47;51.93;;;12.07;;
28613;SDS011;15806;53.548;9.964;2024-01-11T03:55:28;45.60;;;10.82;;
28613;SDS011;15806;53.548;9.964;2024-01-11T03:57:10;47.77;;;12.63;;
28613;SDS011;15806;53.548;9.964;2024-01-11T03:58:50;39.47;;;10.13;;
28613;SDS011;15806;53.548;9.964;2024-01-11T04:00:31;43.97;;;9.77;;
28613;SDS011;15806;53.548;9.964;2024-01-11T04:02:11;33.73;;;9.87;;
28613;SDS011;15806;53.548;9.964;2024-01-11T04:03:53;38.42;;;10.48;;
28613;SDS011;15806;53.548;9.964;2024-01-11T04:07:16;35.60;;;10.30;;
28613;SDS011;15806;53.548;9.964;2024-01-11T04:08:56;38.40;;;9.47;;
28613;SDS011;15806;53.548;9.964;2024-01-11T04:10:37;41.63;;;10.37;;
28613;SDS011;15806;53.548;9.964;2024-01-11T04:12:17;33.60;;;9.80;;
28613;SDS011;15806;53.548;9.964;2024-01-11T04:13:58;43.57;;;10.93;;
28613;SDS011;15806;53.548;9.964;2024-01-11T04:15:38;39.47;;;10.77;;
28613;SDS011;15806;53.548;9.964;2024-01-11T04:17:19;38.33;;;10.50;;
28613;SDS011;15806;53.548;9.964;2024-01-11T04:18:59;44.33;;;9.97;;
28613;SDS011;15806;53.548;9.964;2024-01-11T04:20:40;45.73;;;11.63;;
28613;SDS011;15806;53.548;9.964;2024-01-11T04:22:20;45.47;;;12.30;;
28613;SDS011;15806;53.548;9.964;2024-01-11T04:24:01;43.40;;;10.80;;
28613;SDS011;15806;53.548;9.964;2024-01-11T04:25:41;47.73;;;12.37;;
28613;SDS011;15806;53.548;9.964;2024-01-11T04:29:03;41.67;;;11.40;;
28613;SDS011;15806;53.548;9.964;2024-01-11T04:30:45;45.70;;;10.73;;
28613;SDS011;15806;53.548;9.964;2024-01-11T04:32:26;45.97;;;11.63;;
28613;SDS011;15806;53.548;9.964;2024-01-11T04:34:07;50.33;;;13.03;;
28613;SDS011;15806;53.548;9.964;2024-01-11T04:35:47;52.33;;;13.43;;
28613;SDS011;15806;53.548;9.964;2024-01-11T04:37:28;50.63;;;11.93;;
28613;SDS011;15806;53.548;9.964;2024-01-11T04:39:09;53.63;;;11.47;;
28613;SDS011;15806;53.548;9.964;2024-01-11T04:40:50;60.25;;;14.27;;
28613;SDS011;15806;53.548;9.964;2024-01-11T04:42:32;52.35;;;14.30;;
28613;SDS011;15806;53.548;9.964;2024-01-11T04:44:13;60.63;;;12.70;;
28613;SDS011;15806;53.548;9.964;2024-01-11T04:45:53;65.53;;;14.70;;
28613;SDS011;15806;53.548;9.964;2024-01-11T04:49:15;66.73;;;14.13;;
28613;SDS011;15806;53.548;9.964;2024-01-11T04:50:56;63.67;;;16.03;;
28613;SDS011;15806;53.548;9.964;2024-01-11T04:52:36;77.43;;;18.53;;
28613;SDS011;15806;53.548;9.964;2024-01-11T04:54:17;69.00;;;17.80;;
28613;SDS011;15806;53.548;9.964;2024-01-11T04:55:58;74.78;;;17.83;;
28613;SDS011;15806;53.548;9.964;2024-01-11T04:57:43;69.28;;;16.67;;
28613;SDS011;15806;53.548;9.964;2024-01-11T04:59:29;67.20;;;15.93;;
28613;SDS011;15806;53.548;9.964;2024-01-11T05:01:12;66.13;;;16.70;;
28613;SDS011;15806;53.548;9.964;2024-01-11T05:02:54;70.03;;;15.93;;
28613;SDS011;15806;53.548;9.964;2024-01-11T05:04:35;62.08;;;15.43;;
28613;SDS011;15806;53.548;9.964;2024-01-11T05:06:19;59.67;;;15.70;;
28613;SDS011;15806;53.548;9.964;2024-01-11T05:08:01;70.90;;;18.05;;
28613;SDS011;15806;53.548;9.964;2024-01-11T05:09:41;65.00;;;16.10;;
28613;SDS011;15806;53.548;9.964;2024-01-11T05:11:23;53.22;;;14.48;;
28613;SDS011;15806;53.548;9.964;2024-01-11T05:13:04;68.65;;;15.73;;
28613;SDS011;15806;53.548;9.964;2024-01-11T05:14:45;53.10;;;15.10;;
28613;SDS011;15806;53.548;9.964;2024-01-11T05:16:26;53.07;;;13.20;;
28613;SDS011;15806;53.548;9.964;2024-01-11T05:18:07;62.97;;;16.38;;
28613;SDS011;15806;53.548;9.964;2024-01-11T05:19:47;57.57;;;14.23;;
28613;SDS011;15806;53.548;9.964;2024-01-11T05:21:28;64.77;;;15.87;;
28613;SDS011;15806;53.548;9.964;2024-01-11T05:23:09;54.45;;;13.95;;
28613;SDS011;15806;53.548;9.964;2024-01-11T05:24:49;52.50;;;13.70;;
28613;SDS011;15806;53.548;9.964;2024-01-11T05:26:30;52.60;;;13.57;;
28613;SDS011;15806;53.548;9.964;2024-01-11T05:29:52;37.73;;;11.03;;
28613;SDS011;15806;53.548;9.964;2024-01-11T05:31:32;47.23;;;11.27;;
28613;SDS011;15806;53.548;9.964;2024-01-11T05:33:13;39.03;;;10.03;;
28613;SDS011;15806;53.548;9.964;2024-01-11T05:34:53;41.00;;;10.63;;
28613;SDS011;15806;53.548;9.964;2024-01-11T05:36:34;42.50;;;11.93;;
28613;SDS011;15806;53.548;9.964;2024-01-11T05:38:14;36.57;;;10.90;;
28613;SDS011;15806;53.548;9.964;2024-01-11T05:39:55;41.17;;;11.07;;
28613;SDS011;15806;53.548;9.964;2024-01-11T05:41:35;40.03;;;10.30;;
28613;SDS011;15806;53.548;9.964;2024-01-11T05:43:17;33.72;;;9.10;;
28613;SDS011;15806;53.548;9.964;2024-01-11T05:44:59;34.35;;;8.90;;
28613;SDS011;15806;53.548;9.964;2024-01-11T05:46:39;37.63;;;9.93;;
28613;SDS011;15806;53.548;9.964;2024-01-11T05:48:21;35.40;;;9.27;;
28613;SDS011;15806;53.548;9.964;2024-01-11T05:50:03;33.30;;;8.18;;
28613;SDS011;15806;53.548;9.964;2024-01-11T05:51:44;32.50;;;8.30;;
28613;SDS011;15806;53.548;9.964;2024-01-11T05:53:24;27.73;;;7.80;;
28613;SDS011;15806;53.548;9.964;2024-01-11T05:55:05;31.87;;;8.20;;
28613;SDS011;15806;53.548;9.964;2024-01-11T05:56:45;28.90;;;7.57;;
28613;SDS011;15806;53.548;9.964;2024-01-11T05:58:27;24.00;;;7.53;;
28613;SDS011;15806;53.548;9.964;2024-01-11T06:00:09;34.97;;;8.00;;
28613;SDS011;15806;53.548;9.964;2024-01-11T06:01:49;31.17;;;7.30;;
28613;SDS011;15806;53.548;9.964;2024-01-11T06:03:30;29.20;;;8.10;;
28613;SDS011;15806;53.548;9.964;2024-01-11T06:05:10;78.60;;;22.03;;
28613;SDS011;15806;53.548;9.964;2024-01-11T06:06:51;24.90;;;7.70;;
28613;SDS011;15806;53.548;9.964;2024-01-11T06:08:32;26.08;;;6.70;;
28613;SDS011;15806;53.548;9.964;2024-01-11T06:10:12;22.50;;;6.10;;
28613;SDS011;15806;53.548;9.964;2024-01-11T06:11:53;25.50;;;7.15;;
28613;SDS011;15806;53.548;9.964;2024-01-11T06:13:34;36.20;;;9.00;;
28613;SDS011;15806;53.548;9.964;2024-01-11T06:15:14;16.57;;;5.93;;
28613;SDS011;15806;53.548;9.964;2024-01-11T06:16:55;23.50;;;5.77;;
28613;SDS011;15806;53.548;9.964;2024-01-11T06:18:35;18.83;;;6.27;;
28613;SDS011;15806;53.548;9.964;2024-01-11T06:20:16;21.53;;;5.57;;
28613;SDS011;15806;53.548;9.964;2024-01-11T06:21:56;21.13;;;5.17;;
28613;SDS011;15806;53.548;9.964;2024-01-11T06:23:37;27.47;;;6.97;;
28613;SDS011;15806;53.548;9.964;2024-01-11T06:27:02;17.88;;;4.28;;
28613;SDS011;15806;53.548;9.964;2024-01-11T06:28:43;20.17;;;5.17;;
28613;SDS011;15806;53.548;9.964;2024-01-11T06:30:23;24.33;;;5.27;;
28613;SDS011;15806;53.548;9.964;2024-01-11T06:32:04;19.73;;;5.90;;
28613;SDS011;15806;53.548;9.964;2024-01-11T06:33:45;22.20;;;4.75;;
28613;SDS011;15806;53.548;9.964;2024-01-11T06:35:25;23.80;;;5.73;;
28613;SDS011;15806;53.548;9.964;2024-01-11T06:37:06;20.93;;;4.83;;
28613;SDS011;15806;53.548;9.964;2024-01-11T06:38:47;21.05;;;5.07;;
28613;SDS011;15806;53.548;9.964;2024-01-11T06:40:27;23.50;;;6.00;;
28613;SDS011;15806;53.548;9.964;2024-01-11T06:42:08;20.77;;;5.70;;
28613;SDS011;15806;53.548;9.964;2024-01-11T06:43:49;19.83;;;5.43;;
28613;SDS011;15806;53.548;9.964;2024-01-11T06:45:29;14.53;;;4.30;;
28613;SDS011;15806;53.548;9.964;2024-01-11T06:47:10;20.30;;;4.57;;
28613;SDS011;15806;53.548;9.964;2024-01-11T06:48:50;16.50;;;4.85;;
28613;SDS011;15806;53.548;9.964;2024-01-11T06:50:31;21.00;;;4.57;;
28613;SDS011;15806;53.548;9.964;2024-01-11T06:52:12;22.73;;;4.93;;
28613;SDS011;15806;53.548;9.964;2024-01-11T06:53:52;19.10;;;4.33;;
28613;SDS011;15806;53.548;9.964;2024-01-11T06:55:33;24.80;;;5.57;;
28613;SDS011;15806;53.548;9.964;2024-01-11T06:57:13;22.17;;;5.53;;
28613;SDS011;15806;53.548;9.964;2024-01-11T06:58:54;23.60;;;6.20;;
28613;SDS011;15806;53.548;9.964;2024-01-11T07:00:35;27.90;;;5.85;;
28613;SDS011;15806;53.548;9.964;2024-01-11T07:02:15;20.37;;;5.73;;
28613;SDS011;15806;53.548;9.964;2024-01-11T07:03:56;26.97;;;6.57;;
28613;SDS011;15806;53.548;9.964;2024-01-11T07:05:36;21.00;;;5.30;;
28613;SDS011;15806;53.548;9.964;2024-01-11T07:07:17;27.10;;;5.47;;
28613;SDS011;15806;53.548;9.964;2024-01-11T07:08:58;25.80;;;5.70;;
28613;SDS011;15806;53.548;9.964;2024-01-11T07:10:39;24.35;;;5.10;;
28613;SDS011;15806;53.548;9.964;2024-01-11T07:12:19;16.43;;;3.87;;
28613;SDS011;15806;53.548;9.964;2024-01-11T07:14:00;21.07;;;4.53;;
28613;SDS011;15806;53.548;9.964;2024-01-11T07:15:41;21.97;;;5.03;;
28613;SDS011;15806;53.548;9.964;2024-01-11T07:17:21;20.05;;;4.18;;
28613;SDS011;15806;53.548;9.964;2024-01-11T07:19:02;23.77;;;5.00;;
28613;SDS011;15806;53.548;9.964;2024-01-11T07:20:43;26.17;;;5.07;;
28613;SDS011;15806;53.548;9.964;2024-01-11T07:22:23;18.45;;;5.30;;
28613;SDS011;15806;53.548;9.964;2024-01-11T07:24:04;25.57;;;5.30;;
28613;SDS011;15806;53.548;9.964;2024-01-11T07:25:45;27.60;;;5.93;;
28613;SDS011;15806;53.548;9.964;2024-01-11T07:27:25;20.10;;;3.67;;
28613;SDS011;15806;53.548;9.964;2024-01-11T07:29:06;24.47;;;5.37;;
28613;SDS011;15806;53.548;9.964;2024-01-11T07:30:46;23.60;;;4.50;;
28613;SDS011;15806;53.548;9.964;2024-01-11T07:32:27;25.17;;;5.47;;
28613;SDS011;15806;53.548;9.964;2024-01-11T07:34:08;26.50;;;5.53;;
28613;SDS011;15806;53.548;9.964;2024-01-11T07:35:48;30.73;;;6.33;;
28613;SDS011;15806;53.548;9.964;2024-01-11T07:37:29;17.80;;;5.33;;
28613;SDS011;15806;53.548;9.964;2024-01-11T07:39:09;26.40;;;4.57;;
28613;SDS011;15806;53.548;9.964;2024-01-11T07:40:50;24.47;;;4.73;;
28613;SDS011;15806;53.548;9.964;2024-01-11T07:42:30;27.37;;;5.33;;
28613;SDS011;15806;53.548;9.964;2024-01-11T07:44:11;32.23;;;6.07;;
28613;SDS011;15806;53.548;9.964;2024-01-11T07:45:51;24.67;;;5.37;;
28613;SDS011;15806;53.548;9.964;2024-01-11T07:47:32;25.40;;;5.30;;
28613;SDS011;15806;53.548;9.964;2024-01-11T07:49:13;63.13;;;16.27;;
28613;SDS011;15806;53.548;9.964;2024-01-11T07:50:53;29.90;;;7.20;;
28613;SDS011;15806;53.548;9.964;2024-01-11T07:52:34;39.00;;;5.20;;
28613;SDS011;15806;53.548;9.964;2024-01-11T07:54:15;20.40;;;4.95;;
28613;SDS011;15806;53.548;9.964;2024-01-11T07:55:55;30.15;;;6.30;;
28613;SDS011;15806;53.548;9.964;2024-01-11T07:57:37;30.10;;;5.75;;
28613;SDS011;15806;53.548;9.964;2024-01-11T07:59:18;31.20;;;6.10;;
28613;SDS011;15806;53.548;9.964;2024-01-11T08:00:58;25.90;;;5.57;;
28613;SDS011;15806;53.548;9.964;2024-01-11T08:02:39;31.30;;;5.60;;
28613;SDS011;15806;53.548;9.964;2024-01-11T08:04:19;30.67;;;6.37;;
28613;SDS011;15806;53.548;9.964;2024-01-11T08:06:00;26.20;;;5.70;;
28613;SDS011;15806;53.548;9.964;2024-01-11T08:07:41;24.02;;;4.75;;
28613;SDS011;15806;53.548;9.964;2024-01-11T08:09:21;34.87;;;6.57;;
28613;SDS011;15806;53.548;9.964;2024-01-11T08:11:02;66.10;;;16.03;;
28613;SDS011;15806;53.548;9.964;2024-01-11T08:12:43;33.33;;;6.63;;
28613;SDS011;15806;53.548;9.964;2024-01-11T08:14:23;26.50;;;5.73;;
28613;SDS011;15806;53.548;9.964;2024-01-11T08:16:04;32.27;;;6.17;;
28613;SDS011;15806;53.548;9.964;2024-01-11T08:17:45;29.17;;;5.82;;
28613;SDS011;15806;53.548;9.964;2024-01-11T08:19:25;197.30;;;49.07;;
28613;SDS011;15806;53.548;9.964;2024-01-11T08:21:06;85.67;;;23.33;;
28613;SDS011;15806;53.548;9.964;2024-01-11T08:22:46;28.37;;;8.17;;
28613;SDS011;15806;53.548;9.964;2024-01-11T08:24:27;27.70;;;7.23;;
28613;SDS011;15806;53.548;9.964;2024-01-11T08:26:07;29.83;;;5.97;;
28613;SDS011;15806;53.548;9.964;2024-01-11T08:27:48;25.67;;;5.87;;
28613;SDS011;15806;53.548;9.964;2024-01-11T08:29:29;23.97;;;5.77;;
28613;SDS011;15806;53.548;9.964;2024-01-11T08:31:09;29.13;;;6.07;;
28613;SDS011;15806;53.548;9.964;2024-01-11T08:32:50;28.53;;;4.83;;
28613;SDS011;15806;53.548;9.964;2024-01-11T08:34:31;26.73;;;5.33;;
28613;SDS011;15806;53.548;9.964;2024-01-11T08:36:12;26.55;;;6.45;;
28613;SDS011;15806;53.548;9.964;2024-01-11T08:37:53;25.80;;;5.28;;
28613;SDS011;15806;53.548;9.964;2024-01-11T08:39:33;21.70;;;4.90;;
28613;SDS011;15806;53.548;9.964;2024-01-11T08:41:14;21.80;;;4.67;;
28613;SDS011;15806;53.548;9.964;2024-01-11T08:42:54;25.60;;;6.23;;
28613;SDS011;15806;53.548;9.964;2024-01-11T08:44:35;25.03;;;5.57;;
28613;SDS011;15806;53.548;9.964;2024-01-11T08:46:23;26.50;;;5.77;;
28613;SDS011;15806;53.548;9.964;2024-01-11T08:48:06;23.42;;;4.85;;
28613;SDS011;15806;53.548;9.964;2024-01-11T08:49:47;19.77;;;4.63;;
28613;SDS011;15806;53.548;9.964;2024-01-11T08:51:27;27.03;;;6.20;;
28613;SDS011;15806;53.548;9.964;2024-01-11T08:53:08;25.47;;;4.80;;
28613;SDS011;15806;53.548;9.964;2024-01-11T08:54:48;29.27;;;6.03;;
28613;SDS011;15806;53.548;9.964;2024-01-11T08:56:29;25.00;;;5.73;;
28613;SDS011;15806;53.548;9.964;2024-01-11T08:58:09;27.93;;;5.97;;
28613;SDS011;15806;53.548;9.964;2024-01-11T08:59:50;32.50;;;5.17;;
28613;SDS011;15806;53.548;9.964;2024-01-11T09:01:30;29.60;;;4.40;;
28613;SDS011;15806;53.548;9.964;2024-01-11T09:03:11;28.80;;;4.87;;
28613;SDS011;15806;53.548;9.964;2024-01-11T09:04:51;30.23;;;5.43;;
28613;SDS011;15806;53.548;9.964;2024-01-11T09:06:32;21.43;;;4.67;;
28613;SDS011;15806;53.548;9.964;2024-01-11T09:08:13;23.00;;;4.50;;
28613;SDS011;15806;53.548;9.964;2024-01-11T09:09:53;26.17;;;5.50;;
28613;SDS011;15806;53.548;9.964;2024-01-11T09:11:34;17.10;;;3.83;;
28613;SDS011;15806;53.548;9.964;2024-01-11T09:13:14;24.57;;;4.83;;
28613;SDS011;15806;53.548;9.964;2024-01-11T09:14:55;18.73;;;4.10;;
28613;SDS011;15806;53.548;9.964;2024-01-11T09:16:35;15.67;;;4.23;;
28613;SDS011;15806;53.548;9.964;2024-01-11T09:18:16;18.60;;;4.65;;
28613;SDS011;15806;53.548;9.964;2024-01-11T09:19:57;74.47;;;19.53;;
28613;SDS011;15806;53.548;9.964;2024-01-11T09:21:37;38.90;;;8.53;;
28613;SDS011;15806;53.548;9.964;2024-01-11T09:23:18;25.90;;;5.80;;
28613;SDS011;15806;53.548;9.964;2024-01-11T09:24:59;17.57;;;4.20;;
28613;SDS011;15806;53.548;9.964;2024-01-11T09:26:39;26.70;;;5.67;;
28613;SDS011;15806;53.548;9.964;2024-01-11T09:28:20;41.20;;;7.23;;
28613;SDS011;15806;53.548;9.964;2024-01-11T09:30:00;27.40;;;5.93;;
28613;SDS011;15806;53.548;9.964;2024-01-11T09:31:41;23.87;;;6.37;;
28613;SDS011;15806;53.548;9.964;2024-01-11T09:33:21;34.97;;;5.80;;
28613;SDS011;15806;53.548;9.964;2024-01-11T09:35:03;31.77;;;6.70;;
28613;SDS011;15806;53.548;9.964;2024-01-11T09:36:43;28.05;;;6.68;;
28613;SDS011;15806;53.548;9.964;2024-01-11T09:38:24;24.47;;;5.80;;
28613;SDS011;15806;53.548;9.964;2024-01-11T09:40:05;24.03;;;5.23;;
28613;SDS011;15806;53.548;9.964;2024-01-11T09:41:49;22.55;;;4.90;;
28613;SDS011;15806;53.548;9.964;2024-01-11T09:43:36;22.02;;;4.20;;
28613;SDS011;15806;53.548;9.964;2024-01-11T09:45:17;21.23;;;5.00;;
28613;SDS011;15806;53.548;9.964;2024-01-11T09:46:57;32.97;;;5.15;;
28613;SDS011;15806;53.548;9.964;2024-01-11T09:48:40;17.15;;;4.43;;
28613;SDS011;15806;53.548;9.964;2024-01-11T09:50:23;21.85;;;5.18;;
28613;SDS011;15806;53.548;9.964;2024-01-11T09:52:04;21.02;;;5.00;;
28613;SDS011;15806;53.548;9.964;2024-01-11T09:53:45;35.17;;;5.95;;
28613;SDS011;15806;53.548;9.964;2024-01-11T09:55:29;28.48;;;5.93;;
28613;SDS011;15806;53.548;9.964;2024-01-11T09:57:09;27.50;;;6.47;;
28613;SDS011;15806;53.548;9.964;2024-01-11T09:58:51;28.20;;;6.97;;
28613;SDS011;15806;53.548;9.964;2024-01-11T10:00:32;33.00;;;7.38;;
28613;SDS011;15806;53.548;9.964;2024-01-11T10:02:12;36.83;;;8.45;;
28613;SDS011;15806;53.548;9.964;2024-01-11T10:03:53;28.55;;;7.10;;
28613;SDS011;15806;53.548;9.964;2024-01-11T10:05:34;34.43;;;7.63;;
28613;SDS011;15806;53.548;9.964;2024-01-11T10:07:16;31.98;;;6.63;;
28613;SDS011;15806;53.548;9.964;2024-01-11T10:08:58;24.77;;;6.32;;